sensor_id;sensor_type;location;lat;lon;timestamp;temperature;humidity
34989;DHT22;21192;40.182;44.516;2024-01-07T00:00:22;6.90;65.10
34989;DHT22;21192;40.182;44.516;2024-01-07T00:02:48;6.90;65.20
34989;DHT22;21192;40.182;44.516;2024-01-07T00:05:14;6.90;65.30
34989;DHT22;21192;40.182;44.516;2024-01-07T00:07:39;6.90;65.30
34989;DHT22;21192;40.182;44.516;2024-01-07T00:10:05;6.90;65.20
34989;DHT22;21192;40.182;44.516;2024-01-07T00:12:31;6.80;65.20
34989;DHT22;21192;40.182;44.516;2024-01-07T00:14:57;6.80;65.40
34989;DHT22;21192;40.182;44.516;2024-01-07T00:17:23;6.70;65.40
34989;DHT22;21192;40.182;44.516;2024-01-07T00:19:49;6.80;65.50
34989;DHT22;21192;40.182;44.516;2024-01-07T00:22:15;6.80;65.50
34989;DHT22;21192;40.182;44.516;2024-01-07T00:24:41;6.70;65.30
34989;DHT22;21192;40.182;44.516;2024-01-07T00:27:07;6.70;65.30
34989;DHT22;21192;40.182;44.516;2024-01-07T00:29:34;6.70;65.20
34989;DHT22;21192;40.182;44.516;2024-01-07T00:32:01;6.70;65.20
34989;DHT22;21192;40.182;44.516;2024-01-07T00:34:27;6.70;65.20
34989;DHT22;21192;40.182;44.516;2024-01-07T00:36:53;6.70;65.30
34989;DHT22;21192;40.182;44.516;2024-01-07T00:39:20;6.70;65.50
34989;DHT22;21192;40.182;44.516;2024-01-07T00:41:46;6.70;65.30
34989;DHT22;21192;40.182;44.516;2024-01-07T00:44:12;6.70;65.40
34989;DHT22;21192;40.182;44.516;2024-01-07T00:46:38;6.70;65.30
34989;DHT22;21192;40.182;44.516;2024-01-07T00:49:04;6.70;65.10
34989;DHT22;21192;40.182;44.516;2024-01-07T00:51:30;6.70;65.10
34989;DHT22;21192;40.182;44.516;2024-01-07T00:53:56;6.60;65.00
34989;DHT22;21192;40.182;44.516;2024-01-07T00:56:25;6.60;65.00
34989;DHT22;21192;40.182;44.516;2024-01-07T00:58:50;6.60;64.90
34989;DHT22;21192;40.182;44.516;2024-01-07T01:01:16;6.60;65.60
34989;DHT22;21192;40.182;44.516;2024-01-07T01:03:42;6.70;64.60
34989;DHT22;21192;40.182;44.516;2024-01-07T01:06:08;6.60;65.20
34989;DHT22;21192;40.182;44.516;2024-01-07T01:08:34;6.70;64.30
34989;DHT22;21192;40.182;44.516;2024-01-07T01:11:00;6.60;64.20
34989;DHT22;21192;40.182;44.516;2024-01-07T01:13:25;6.70;64.40
34989;DHT22;21192;40.182;44.516;2024-01-07T01:15:51;6.60;64.30
34989;DHT22;21192;40.182;44.516;2024-01-07T01:18:18;6.60;64.50
34989;DHT22;21192;40.182;44.516;2024-01-07T01:20:43;6.60;64.80
34989;DHT22;21192;40.182;44.516;2024-01-07T01:23:09;6.50;65.00
34989;DHT22;21192;40.182;44.516;2024-01-07T01:25:35;6.50;65.20
34989;DHT22;21192;40.182;44.516;2024-01-07T01:28:01;6.50;65.30
34989;DHT22;21192;40.182;44.516;2024-01-07T01:30:27;6.50;65.40
34989;DHT22;21192;40.182;44.516;2024-01-07T01:32:56;6.60;65.30
34989;DHT22;21192;40.182;44.516;2024-01-07T01:35:22;6.60;65.00
34989;DHT22;21192;40.182;44.516;2024-01-07T01:37:48;6.50;65.00
34989;DHT22;21192;40.182;44.516;2024-01-07T01:40:16;6.50;65.20
34989;DHT22;21192;40.182;44.516;2024-01-07T01:42:45;6.50;65.00
34989;DHT22;21192;40.182;44.516;2024-01-07T01:45:12;6.50;65.00
34989;DHT22;21192;40.182;44.516;2024-01-07T01:47:38;6.50;65.00
34989;DHT22;21192;40.182;44.516;2024-01-07T01:50:04;6.60;64.80
34989;DHT22;21192;40.182;44.516;2024-01-07T01:52:30;6.60;64.70
34989;DHT22;21192;40.182;44.516;2024-01-07T01:54:56;6.50;64.50
34989;DHT22;21192;40.182;44.516;2024-01-07T01:57:24;6.50;64.70
34989;DHT22;21192;40.182;44.516;2024-01-07T01:59:53;6.50;64.90
34989;DHT22;21192;40.182;44.516;2024-01-07T02:02:19;6.50;64.90
34989;DHT22;21192;40.182;44.516;2024-01-07T02:04:45;6.50;64.90
34989;DHT22;21192;40.182;44.516;2024-01-07T02:07:11;6.50;64.80
34989;DHT22;21192;40.182;44.516;2024-01-07T02:09:37;6.50;64.90
34989;DHT22;21192;40.182;44.516;2024-01-07T02:12:03;6.50;64.90
34989;DHT22;21192;40.182;44.516;2024-01-07T02:14:30;6.50;64.80
34989;DHT22;21192;40.182;44.516;2024-01-07T02:16:56;6.50;64.70
34989;DHT22;21192;40.182;44.516;2024-01-07T02:19:22;6.50;64.70
34989;DHT22;21192;40.182;44.516;2024-01-07T02:21:50;6.40;64.60
34989;DHT22;21192;40.182;44.516;2024-01-07T02:24:16;6.40;64.70
34989;DHT22;21192;40.182;44.516;2024-01-07T02:26:42;6.40;64.70
34989;DHT22;21192;40.182;44.516;2024-01-07T02:29:08;6.40;64.60
34989;DHT22;21192;40.182;44.516;2024-01-07T02:31:34;6.40;64.50
34989;DHT22;21192;40.182;44.516;2024-01-07T02:34:00;6.40;64.40
34989;DHT22;21192;40.182;44.516;2024-01-07T02:36:26;6.30;64.40
34989;DHT22;21192;40.182;44.516;2024-01-07T02:38:52;6.40;64.40
34989;DHT22;21192;40.182;44.516;2024-01-07T02:41:18;6.40;64.10
34989;DHT22;21192;40.182;44.516;2024-01-07T02:43:45;6.40;64.00
34989;DHT22;21192;40.182;44.516;2024-01-07T02:46:11;6.40;64.00
34989;DHT22;21192;40.182;44.516;2024-01-07T02:48:37;6.40;64.00
34989;DHT22;21192;40.182;44.516;2024-01-07T02:51:03;6.30;63.90
34989;DHT22;21192;40.182;44.516;2024-01-07T02:53:31;6.40;63.70
34989;DHT22;21192;40.182;44.516;2024-01-07T02:55:56;6.30;63.60
34989;DHT22;21192;40.182;44.516;2024-01-07T02:58:22;6.30;63.70
34989;DHT22;21192;40.182;44.516;2024-01-07T03:00:48;6.30;63.70
34989;DHT22;21192;40.182;44.516;2024-01-07T03:03:14;6.30;63.50
34989;DHT22;21192;40.182;44.516;2024-01-07T03:05:40;6.30;63.40
34989;DHT22;21192;40.182;44.516;2024-01-07T03:08:06;6.30;63.40
34989;DHT22;21192;40.182;44.516;2024-01-07T03:10:33;6.40;63.30
34989;DHT22;21192;40.182;44.516;2024-01-07T03:13:00;6.40;63.20
34989;DHT22;21192;40.182;44.516;2024-01-07T03:15:25;6.40;63.10
34989;DHT22;21192;40.182;44.516;2024-01-07T03:17:51;6.40;63.00
34989;DHT22;21192;40.182;44.516;2024-01-07T03:20:17;6.40;63.10
34989;DHT22;21192;40.182;44.516;2024-01-07T03:22:43;6.40;63.10
34989;DHT22;21192;40.182;44.516;2024-01-07T03:25:09;6.50;63.10
34989;DHT22;21192;40.182;44.516;2024-01-07T03:27:35;6.50;62.90
34989;DHT22;21192;40.182;44.516;2024-01-07T03:30:01;6.50;62.70
34989;DHT22;21192;40.182;44.516;2024-01-07T03:32:26;6.50;62.60
34989;DHT22;21192;40.182;44.516;2024-01-07T03:34:53;6.50;62.70
34989;DHT22;21192;40.182;44.516;2024-01-07T03:37:19;6.40;62.70
34989;DHT22;21192;40.182;44.516;2024-01-07T03:39:46;6.40;62.70
34989;DHT22;21192;40.182;44.516;2024-01-07T03:42:12;6.40;62.80
34989;DHT22;21192;40.182;44.516;2024-01-07T03:44:39;6.50;62.90
34989;DHT22;21192;40.182;44.516;2024-01-07T03:47:06;6.60;62.90
34989;DHT22;21192;40.182;44.516;2024-01-07T03:49:31;6.60;62.80
34989;DHT22;21192;40.182;44.516;2024-01-07T03:51:57;6.60;62.90
34989;DHT22;21192;40.182;44.516;2024-01-07T03:54:23;6.60;63.00
34989;DHT22;21192;40.182;44.516;2024-01-07T03:56:49;6.70;63.10
34989;DHT22;21192;40.182;44.516;2024-01-07T03:59:15;6.60;63.50
34989;DHT22;21192;40.182;44.516;2024-01-07T04:01:41;6.60;63.70
34989;DHT22;21192;40.182;44.516;2024-01-07T04:04:07;6.60;63.80
34989;DHT22;21192;40.182;44.516;2024-01-07T04:06:33;6.60;64.10
34989;DHT22;21192;40.182;44.516;2024-01-07T04:08:59;6.60;64.30
34989;DHT22;21192;40.182;44.516;2024-01-07T04:11:25;6.60;64.30
34989;DHT22;21192;40.182;44.516;2024-01-07T04:13:50;6.50;64.50
34989;DHT22;21192;40.182;44.516;2024-01-07T04:16:17;6.60;64.70
34989;DHT22;21192;40.182;44.516;2024-01-07T04:18:44;6.60;64.50
34989;DHT22;21192;40.182;44.516;2024-01-07T04:21:11;6.60;64.50
34989;DHT22;21192;40.182;44.516;2024-01-07T04:23:38;6.50;64.50
34989;DHT22;21192;40.182;44.516;2024-01-07T04:26:04;6.50;64.50
34989;DHT22;21192;40.182;44.516;2024-01-07T04:28:30;6.40;64.40
34989;DHT22;21192;40.182;44.516;2024-01-07T04:30:56;6.30;64.40
34989;DHT22;21192;40.182;44.516;2024-01-07T04:33:22;6.30;64.40
34989;DHT22;21192;40.182;44.516;2024-01-07T04:35:48;6.40;64.50
34989;DHT22;21192;40.182;44.516;2024-01-07T04:38:14;6.40;65.20
34989;DHT22;21192;40.182;44.516;2024-01-07T04:40:40;6.40;64.40
34989;DHT22;21192;40.182;44.516;2024-01-07T04:43:05;6.40;64.40
34989;DHT22;21192;40.182;44.516;2024-01-07T04:45:31;6.40;64.30
34989;DHT22;21192;40.182;44.516;2024-01-07T04:47:57;6.40;64.30
34989;DHT22;21192;40.182;44.516;2024-01-07T04:50:23;6.30;64.40
34989;DHT22;21192;40.182;44.516;2024-01-07T04:52:49;6.30;64.60
34989;DHT22;21192;40.182;44.516;2024-01-07T04:55:15;6.40;64.80
34989;DHT22;21192;40.182;44.516;2024-01-07T04:57:41;6.40;64.60
34989;DHT22;21192;40.182;44.516;2024-01-07T05:00:07;6.40;64.50
34989;DHT22;21192;40.182;44.516;2024-01-07T05:02:33;6.40;64.60
34989;DHT22;21192;40.182;44.516;2024-01-07T05:04:59;6.50;64.80
34989;DHT22;21192;40.182;44.516;2024-01-07T05:07:25;6.60;64.60
34989;DHT22;21192;40.182;44.516;2024-01-07T05:09:50;6.70;64.30
34989;DHT22;21192;40.182;44.516;2024-01-07T05:12:16;6.70;64.00
34989;DHT22;21192;40.182;44.516;2024-01-07T05:14:42;6.70;64.00
34989;DHT22;21192;40.182;44.516;2024-01-07T05:17:12;6.60;63.80
34989;DHT22;21192;40.182;44.516;2024-01-07T05:19:40;6.60;64.00
34989;DHT22;21192;40.182;44.516;2024-01-07T05:22:07;6.70;64.00
34989;DHT22;21192;40.182;44.516;2024-01-07T05:24:32;6.80;64.00
34989;DHT22;21192;40.182;44.516;2024-01-07T05:26:58;6.90;64.00
34989;DHT22;21192;40.182;44.516;2024-01-07T05:29:24;6.90;64.00
34989;DHT22;21192;40.182;44.516;2024-01-07T05:31:50;7.00;64.00
34989;DHT22;21192;40.182;44.516;2024-01-07T05:34:16;7.00;64.00
34989;DHT22;21192;40.182;44.516;2024-01-07T05:36:42;7.00;64.10
34989;DHT22;21192;40.182;44.516;2024-01-07T05:39:08;7.10;63.80
34989;DHT22;21192;40.182;44.516;2024-01-07T05:41:37;7.20;64.20
34989;DHT22;21192;40.182;44.516;2024-01-07T05:44:06;7.30;63.10
34989;DHT22;21192;40.182;44.516;2024-01-07T05:46:33;7.60;62.80
34989;DHT22;21192;40.182;44.516;2024-01-07T05:48:59;8.70;62.40
34989;DHT22;21192;40.182;44.516;2024-01-07T05:51:25;11.70;59.90
34989;DHT22;21192;40.182;44.516;2024-01-07T05:53:51;14.30;56.50
34989;DHT22;21192;40.182;44.516;2024-01-07T05:56:17;16.90;52.60
34989;DHT22;21192;40.182;44.516;2024-01-07T05:58:42;19.00;48.80
34989;DHT22;21192;40.182;44.516;2024-01-07T06:01:08;20.80;45.40
34989;DHT22;21192;40.182;44.516;2024-01-07T06:03:34;22.20;42.50
34989;DHT22;21192;40.182;44.516;2024-01-07T06:06:00;23.00;40.10
34989;DHT22;21192;40.182;44.516;2024-01-07T06:08:26;23.90;38.30
34989;DHT22;21192;40.182;44.516;2024-01-07T06:10:52;24.60;37.00
34989;DHT22;21192;40.182;44.516;2024-01-07T06:13:18;25.80;36.00
34989;DHT22;21192;40.182;44.516;2024-01-07T06:15:44;26.40;34.70
34989;DHT22;21192;40.182;44.516;2024-01-07T06:18:10;26.50;33.50
34989;DHT22;21192;40.182;44.516;2024-01-07T06:20:36;26.70;33.00
34989;DHT22;21192;40.182;44.516;2024-01-07T06:23:02;27.30;33.00
34989;DHT22;21192;40.182;44.516;2024-01-07T06:25:27;27.60;31.60
34989;DHT22;21192;40.182;44.516;2024-01-07T06:27:53;27.70;30.70
34989;DHT22;21192;40.182;44.516;2024-01-07T06:30:19;27.70;30.60
34989;DHT22;21192;40.182;44.516;2024-01-07T06:32:45;27.50;30.40
34989;DHT22;21192;40.182;44.516;2024-01-07T06:35:11;27.90;30.30
34989;DHT22;21192;40.182;44.516;2024-01-07T06:37:37;28.40;30.00
34989;DHT22;21192;40.182;44.516;2024-01-07T06:40:03;28.40;29.50
34989;DHT22;21192;40.182;44.516;2024-01-07T06:42:29;28.00;29.50
34989;DHT22;21192;40.182;44.516;2024-01-07T06:44:55;27.90;29.60
34989;DHT22;21192;40.182;44.516;2024-01-07T06:47:21;27.60;29.60
34989;DHT22;21192;40.182;44.516;2024-01-07T06:49:48;28.10;29.60
34989;DHT22;21192;40.182;44.516;2024-01-07T06:52:14;28.00;29.30
34989;DHT22;21192;40.182;44.516;2024-01-07T06:54:40;28.00;29.30
34989;DHT22;21192;40.182;44.516;2024-01-07T06:57:05;28.30;29.20
34989;DHT22;21192;40.182;44.516;2024-01-07T06:59:31;28.20;29.00
34989;DHT22;21192;40.182;44.516;2024-01-07T07:01:57;28.10;29.00
34989;DHT22;21192;40.182;44.516;2024-01-07T07:04:23;28.50;28.90
34989;DHT22;21192;40.182;44.516;2024-01-07T07:06:49;28.30;28.60
34989;DHT22;21192;40.182;44.516;2024-01-07T07:09:15;27.30;28.60
34989;DHT22;21192;40.182;44.516;2024-01-07T07:11:41;25.10;29.30
34989;DHT22;21192;40.182;44.516;2024-01-07T07:14:07;23.60;30.80
34989;DHT22;21192;40.182;44.516;2024-01-07T07:16:33;22.60;31.80
34989;DHT22;21192;40.182;44.516;2024-01-07T07:18:59;21.40;32.90
34989;DHT22;21192;40.182;44.516;2024-01-07T07:21:25;20.40;34.20
34989;DHT22;21192;40.182;44.516;2024-01-07T07:23:52;19.10;35.60
34989;DHT22;21192;40.182;44.516;2024-01-07T07:26:18;18.10;37.10
34989;DHT22;21192;40.182;44.516;2024-01-07T07:28:44;17.60;38.00
34989;DHT22;21192;40.182;44.516;2024-01-07T07:31:13;17.00;38.80
34989;DHT22;21192;40.182;44.516;2024-01-07T07:33:39;16.70;39.60
34989;DHT22;21192;40.182;44.516;2024-01-07T07:36:06;16.30;40.20
34989;DHT22;21192;40.182;44.516;2024-01-07T07:38:32;16.00;41.30
34989;DHT22;21192;40.182;44.516;2024-01-07T07:40:59;15.70;41.40
34989;DHT22;21192;40.182;44.516;2024-01-07T07:43:25;15.30;42.20
34989;DHT22;21192;40.182;44.516;2024-01-07T07:45:51;15.10;43.00
34989;DHT22;21192;40.182;44.516;2024-01-07T07:48:18;15.00;43.40
34989;DHT22;21192;40.182;44.516;2024-01-07T07:50:44;14.80;44.00
34989;DHT22;21192;40.182;44.516;2024-01-07T07:53:10;14.70;44.50
34989;DHT22;21192;40.182;44.516;2024-01-07T07:55:36;14.50;44.90
34989;DHT22;21192;40.182;44.516;2024-01-07T07:58:01;14.00;45.60
34989;DHT22;21192;40.182;44.516;2024-01-07T08:00:28;13.50;46.60
34989;DHT22;21192;40.182;44.516;2024-01-07T08:02:54;13.30;47.30
34989;DHT22;21192;40.182;44.516;2024-01-07T08:05:19;13.30;47.50
34989;DHT22;21192;40.182;44.516;2024-01-07T08:07:45;13.10;47.80
34989;DHT22;21192;40.182;44.516;2024-01-07T08:10:11;13.00;48.20
34989;DHT22;21192;40.182;44.516;2024-01-07T08:12:37;12.90;48.50
34989;DHT22;21192;40.182;44.516;2024-01-07T08:15:04;12.80;48.80
34989;DHT22;21192;40.182;44.516;2024-01-07T08:17:30;12.80;49.00
34989;DHT22;21192;40.182;44.516;2024-01-07T08:19:56;12.50;49.40
34989;DHT22;21192;40.182;44.516;2024-01-07T08:22:22;12.50;49.70
34989;DHT22;21192;40.182;44.516;2024-01-07T08:24:48;12.30;49.90
34989;DHT22;21192;40.182;44.516;2024-01-07T08:27:14;12.10;50.30
34989;DHT22;21192;40.182;44.516;2024-01-07T08:29:42;11.80;50.80
34989;DHT22;21192;40.182;44.516;2024-01-07T08:32:09;11.90;51.00
34989;DHT22;21192;40.182;44.516;2024-01-07T08:34:35;11.90;51.00
34989;DHT22;21192;40.182;44.516;2024-01-07T08:37:01;11.80;51.10
34989;DHT22;21192;40.182;44.516;2024-01-07T08:39:27;11.70;51.80
34989;DHT22;21192;40.182;44.516;2024-01-07T08:41:54;11.60;51.50
34989;DHT22;21192;40.182;44.516;2024-01-07T08:44:21;11.70;51.40
34989;DHT22;21192;40.182;44.516;2024-01-07T08:46:46;11.70;51.60
34989;DHT22;21192;40.182;44.516;2024-01-07T08:49:12;11.50;51.60
34989;DHT22;21192;40.182;44.516;2024-01-07T08:51:39;11.30;51.90
34989;DHT22;21192;40.182;44.516;2024-01-07T08:54:05;11.20;52.30
34989;DHT22;21192;40.182;44.516;2024-01-07T08:56:31;11.10;52.70
34989;DHT22;21192;40.182;44.516;2024-01-07T08:58:57;11.00;52.80
34989;DHT22;21192;40.182;44.516;2024-01-07T09:01:24;11.00;52.90
34989;DHT22;21192;40.182;44.516;2024-01-07T09:03:50;10.80;53.10
34989;DHT22;21192;40.182;44.516;2024-01-07T09:06:16;10.50;54.20
34989;DHT22;21192;40.182;44.516;2024-01-07T09:08:42;10.50;53.90
34989;DHT22;21192;40.182;44.516;2024-01-07T09:11:08;10.50;54.00
34989;DHT22;21192;40.182;44.516;2024-01-07T09:13:37;10.50;53.90
34989;DHT22;21192;40.182;44.516;2024-01-07T09:16:03;10.50;54.00
34989;DHT22;21192;40.182;44.516;2024-01-07T09:18:29;10.40;54.00
34989;DHT22;21192;40.182;44.516;2024-01-07T09:20:55;10.40;54.10
34989;DHT22;21192;40.182;44.516;2024-01-07T09:23:20;10.40;54.10
34989;DHT22;21192;40.182;44.516;2024-01-07T09:25:46;10.40;54.20
34989;DHT22;21192;40.182;44.516;2024-01-07T09:28:12;10.40;54.30
34989;DHT22;21192;40.182;44.516;2024-01-07T09:30:38;10.30;54.30
34989;DHT22;21192;40.182;44.516;2024-01-07T09:33:04;10.30;54.40
34989;DHT22;21192;40.182;44.516;2024-01-07T09:35:30;10.40;54.40
34989;DHT22;21192;40.182;44.516;2024-01-07T09:37:56;10.20;54.60
34989;DHT22;21192;40.182;44.516;2024-01-07T09:40:22;10.10;55.00
34989;DHT22;21192;40.182;44.516;2024-01-07T09:42:48;10.10;55.20
34989;DHT22;21192;40.182;44.516;2024-01-07T09:45:16;10.00;55.30
34989;DHT22;21192;40.182;44.516;2024-01-07T09:47:44;9.90;55.40
34989;DHT22;21192;40.182;44.516;2024-01-07T09:50:11;10.00;55.70
34989;DHT22;21192;40.182;44.516;2024-01-07T09:52:43;10.00;55.70
34989;DHT22;21192;40.182;44.516;2024-01-07T09:55:26;10.10;55.60
34989;DHT22;21192;40.182;44.516;2024-01-07T09:57:53;10.20;55.30
34989;DHT22;21192;40.182;44.516;2024-01-07T10:00:20;10.20;55.10
34989;DHT22;21192;40.182;44.516;2024-01-07T10:02:46;10.20;55.00
34989;DHT22;21192;40.182;44.516;2024-01-07T10:05:12;10.20;54.90
34989;DHT22;21192;40.182;44.516;2024-01-07T10:07:38;10.10;54.80
34989;DHT22;21192;40.182;44.516;2024-01-07T10:10:14;10.00;54.70
34989;DHT22;21192;40.182;44.516;2024-01-07T10:12:40;10.00;54.80
34989;DHT22;21192;40.182;44.516;2024-01-07T10:15:06;10.00;54.90
34989;DHT22;21192;40.182;44.516;2024-01-07T10:17:33;10.10;54.80
34989;DHT22;21192;40.182;44.516;2024-01-07T10:19:59;10.20;54.80
34989;DHT22;21192;40.182;44.516;2024-01-07T10:22:25;10.20;54.80
34989;DHT22;21192;40.182;44.516;2024-01-07T10:24:52;10.20;55.00
34989;DHT22;21192;40.182;44.516;2024-01-07T10:27:18;10.20;55.10
34989;DHT22;21192;40.182;44.516;2024-01-07T10:29:47;10.20;55.30
34989;DHT22;21192;40.182;44.516;2024-01-07T10:32:17;10.30;55.30
34989;DHT22;21192;40.182;44.516;2024-01-07T10:34:46;10.30;55.10
34989;DHT22;21192;40.182;44.516;2024-01-07T10:37:15;10.40;55.10
34989;DHT22;21192;40.182;44.516;2024-01-07T10:39:41;10.30;55.10
34989;DHT22;21192;40.182;44.516;2024-01-07T10:42:08;10.30;55.20
34989;DHT22;21192;40.182;44.516;2024-01-07T10:44:34;10.30;55.20
34989;DHT22;21192;40.182;44.516;2024-01-07T10:47:06;10.30;55.00
34989;DHT22;21192;40.182;44.516;2024-01-07T10:49:32;10.00;54.90
34989;DHT22;21192;40.182;44.516;2024-01-07T10:52:07;10.00;55.20
34989;DHT22;21192;40.182;44.516;2024-01-07T10:54:35;10.20;55.20
34989;DHT22;21192;40.182;44.516;2024-01-07T10:57:13;10.30;55.20
34989;DHT22;21192;40.182;44.516;2024-01-07T10:59:41;10.40;55.10
34989;DHT22;21192;40.182;44.516;2024-01-07T11:02:09;10.50;55.40
34989;DHT22;21192;40.182;44.516;2024-01-07T11:07:34;10.50;54.30
34989;DHT22;21192;40.182;44.516;2024-01-07T11:10:10;10.60;54.10
34989;DHT22;21192;40.182;44.516;2024-01-07T11:12:37;10.70;54.00
34989;DHT22;21192;40.182;44.516;2024-01-07T11:15:04;10.80;53.90
34989;DHT22;21192;40.182;44.516;2024-01-07T11:20:02;10.90;53.60
34989;DHT22;21192;40.182;44.516;2024-01-07T11:22:28;11.00;53.50
34989;DHT22;21192;40.182;44.516;2024-01-07T11:24:55;10.90;53.50
34989;DHT22;21192;40.182;44.516;2024-01-07T11:27:22;10.90;53.80
34989;DHT22;21192;40.182;44.516;2024-01-07T11:30:18;10.80;53.90
34989;DHT22;21192;40.182;44.516;2024-01-07T11:32:45;10.70;54.10
34989;DHT22;21192;40.182;44.516;2024-01-07T11:35:14;10.40;54.90
34989;DHT22;21192;40.182;44.516;2024-01-07T11:37:41;10.20;55.20
34989;DHT22;21192;40.182;44.516;2024-01-07T11:40:08;10.30;55.40
34989;DHT22;21192;40.182;44.516;2024-01-07T11:42:34;10.40;55.50
34989;DHT22;21192;40.182;44.516;2024-01-07T11:45:00;10.40;55.50
34989;DHT22;21192;40.182;44.516;2024-01-07T11:47:26;10.30;55.50
34989;DHT22;21192;40.182;44.516;2024-01-07T11:49:53;10.30;55.70
34989;DHT22;21192;40.182;44.516;2024-01-07T11:52:20;10.40;55.80
34989;DHT22;21192;40.182;44.516;2024-01-07T11:54:47;10.40;55.70
34989;DHT22;21192;40.182;44.516;2024-01-07T11:57:13;10.40;55.70
34989;DHT22;21192;40.182;44.516;2024-01-07T11:59:39;10.60;55.60
34989;DHT22;21192;40.182;44.516;2024-01-07T12:02:05;10.60;55.60
34989;DHT22;21192;40.182;44.516;2024-01-07T12:04:32;10.70;55.60
34989;DHT22;21192;40.182;44.516;2024-01-07T12:06:58;10.60;55.40
34989;DHT22;21192;40.182;44.516;2024-01-07T12:09:25;10.70;55.50
34989;DHT22;21192;40.182;44.516;2024-01-07T12:11:51;10.70;55.50
34989;DHT22;21192;40.182;44.516;2024-01-07T12:14:18;10.70;55.50
34989;DHT22;21192;40.182;44.516;2024-01-07T12:16:45;10.60;55.40
34989;DHT22;21192;40.182;44.516;2024-01-07T12:19:11;10.70;55.40
34989;DHT22;21192;40.182;44.516;2024-01-07T12:21:37;10.40;55.70
34989;DHT22;21192;40.182;44.516;2024-01-07T12:24:04;10.30;56.10
34989;DHT22;21192;40.182;44.516;2024-01-07T12:26:31;10.20;56.50
34989;DHT22;21192;40.182;44.516;2024-01-07T12:29:00;10.20;56.60
34989;DHT22;21192;40.182;44.516;2024-01-07T12:31:35;10.20;56.70
34989;DHT22;21192;40.182;44.516;2024-01-07T12:34:03;10.40;56.70
34989;DHT22;21192;40.182;44.516;2024-01-07T12:36:30;10.50;56.40
34989;DHT22;21192;40.182;44.516;2024-01-07T12:38:57;10.50;56.20
34989;DHT22;21192;40.182;44.516;2024-01-07T12:41:23;10.50;56.00
34989;DHT22;21192;40.182;44.516;2024-01-07T12:43:49;10.60;56.10
34989;DHT22;21192;40.182;44.516;2024-01-07T12:46:16;10.50;56.00
34989;DHT22;21192;40.182;44.516;2024-01-07T12:48:42;10.40;56.40
34989;DHT22;21192;40.182;44.516;2024-01-07T12:51:08;10.30;56.20
34989;DHT22;21192;40.182;44.516;2024-01-07T12:53:34;10.40;56.30
34989;DHT22;21192;40.182;44.516;2024-01-07T12:56:00;10.30;56.30
34989;DHT22;21192;40.182;44.516;2024-01-07T12:58:27;10.40;56.30
34989;DHT22;21192;40.182;44.516;2024-01-07T13:00:53;10.50;56.20
34989;DHT22;21192;40.182;44.516;2024-01-07T13:03:19;10.60;56.00
34989;DHT22;21192;40.182;44.516;2024-01-07T13:05:46;10.60;55.80
34989;DHT22;21192;40.182;44.516;2024-01-07T13:08:16;10.70;55.80
34989;DHT22;21192;40.182;44.516;2024-01-07T13:10:44;10.70;55.70
34989;DHT22;21192;40.182;44.516;2024-01-07T13:13:11;10.60;55.70
34989;DHT22;21192;40.182;44.516;2024-01-07T13:15:38;10.50;55.80
34989;DHT22;21192;40.182;44.516;2024-01-07T13:18:06;10.30;56.00
34989;DHT22;21192;40.182;44.516;2024-01-07T13:20:32;10.30;56.20
34989;DHT22;21192;40.182;44.516;2024-01-07T13:22:59;10.20;56.40
34989;DHT22;21192;40.182;44.516;2024-01-07T13:25:26;10.20;56.50
34989;DHT22;21192;40.182;44.516;2024-01-07T13:27:52;10.30;56.50
34989;DHT22;21192;40.182;44.516;2024-01-07T13:30:18;10.40;56.30
34989;DHT22;21192;40.182;44.516;2024-01-07T13:32:44;10.30;56.10
34989;DHT22;21192;40.182;44.516;2024-01-07T13:35:09;10.20;56.20
34989;DHT22;21192;40.182;44.516;2024-01-07T13:37:38;10.20;56.40
34989;DHT22;21192;40.182;44.516;2024-01-07T13:40:08;10.10;56.50
34989;DHT22;21192;40.182;44.516;2024-01-07T13:42:37;10.00;56.70
34989;DHT22;21192;40.182;44.516;2024-01-07T13:45:03;10.00;56.80
34989;DHT22;21192;40.182;44.516;2024-01-07T13:47:29;10.00;56.80
34989;DHT22;21192;40.182;44.516;2024-01-07T13:49:55;10.00;56.80
34989;DHT22;21192;40.182;44.516;2024-01-07T13:52:21;10.00;56.80
34989;DHT22;21192;40.182;44.516;2024-01-07T13:54:47;10.00;57.00
34989;DHT22;21192;40.182;44.516;2024-01-07T13:57:13;9.90;57.00
34989;DHT22;21192;40.182;44.516;2024-01-07T13:59:39;9.80;57.00
34989;DHT22;21192;40.182;44.516;2024-01-07T14:02:07;9.80;57.10
34989;DHT22;21192;40.182;44.516;2024-01-07T14:04:33;9.80;57.10
34989;DHT22;21192;40.182;44.516;2024-01-07T14:06:59;9.70;57.20
34989;DHT22;21192;40.182;44.516;2024-01-07T14:09:25;9.70;57.30
34989;DHT22;21192;40.182;44.516;2024-01-07T14:11:51;9.80;57.30
34989;DHT22;21192;40.182;44.516;2024-01-07T14:14:18;9.80;57.20
34989;DHT22;21192;40.182;44.516;2024-01-07T14:16:46;9.80;57.10
34989;DHT22;21192;40.182;44.516;2024-01-07T14:19:13;9.80;57.00
34989;DHT22;21192;40.182;44.516;2024-01-07T14:21:40;9.80;57.10
34989;DHT22;21192;40.182;44.516;2024-01-07T14:24:06;9.70;57.00
34989;DHT22;21192;40.182;44.516;2024-01-07T14:26:32;9.70;57.20
34989;DHT22;21192;40.182;44.516;2024-01-07T14:28:58;9.50;57.30
34989;DHT22;21192;40.182;44.516;2024-01-07T14:31:24;9.50;57.40
34989;DHT22;21192;40.182;44.516;2024-01-07T14:33:50;9.40;57.70
34989;DHT22;21192;40.182;44.516;2024-01-07T14:36:16;9.40;57.80
34989;DHT22;21192;40.182;44.516;2024-01-07T14:38:46;9.40;57.80
34989;DHT22;21192;40.182;44.516;2024-01-07T14:41:13;9.30;58.00
34989;DHT22;21192;40.182;44.516;2024-01-07T14:43:40;9.30;58.20
34989;DHT22;21192;40.182;44.516;2024-01-07T14:46:09;9.20;58.50
34989;DHT22;21192;40.182;44.516;2024-01-07T14:48:35;9.20;58.50
34989;DHT22;21192;40.182;44.516;2024-01-07T14:51:02;9.30;58.50
34989;DHT22;21192;40.182;44.516;2024-01-07T14:53:28;9.40;58.50
34989;DHT22;21192;40.182;44.516;2024-01-07T14:55:55;9.40;58.40
34989;DHT22;21192;40.182;44.516;2024-01-07T14:58:21;9.40;58.30
34989;DHT22;21192;40.182;44.516;2024-01-07T15:00:48;9.50;58.40
34989;DHT22;21192;40.182;44.516;2024-01-07T15:03:14;9.50;58.30
34989;DHT22;21192;40.182;44.516;2024-01-07T15:05:40;9.60;58.30
34989;DHT22;21192;40.182;44.516;2024-01-07T15:08:07;9.70;58.10
34989;DHT22;21192;40.182;44.516;2024-01-07T15:10:33;9.70;58.00
34989;DHT22;21192;40.182;44.516;2024-01-07T15:12:59;9.80;58.00
34989;DHT22;21192;40.182;44.516;2024-01-07T15:15:25;9.70;58.00
34989;DHT22;21192;40.182;44.516;2024-01-07T15:17:58;9.60;58.30
34989;DHT22;21192;40.182;44.516;2024-01-07T15:20:25;9.60;58.70
34989;DHT22;21192;40.182;44.516;2024-01-07T15:22:51;9.50;58.80